This is the latest recevied weather packets stored in our database for station/object TULLARI. If no packets are shown the sender has not sent any weather packets the latest 1 day(s).
| Time | Temp. | Humidity | Pressure | Rain* | Wind** | Luminosity | Snow |
|---|---|---|---|---|---|---|---|
| 1778018846 | 5° C | 90% | 1009.7 hPa | - | 5.36 m/s, 284° | - | - |
| 1778017647 | 5° C | 90% | 1009.6 hPa | - | 4.92 m/s, 286° | - | - |
| 1778016447 | 5° C | 89% | 1009.5 hPa | - | 6.26 m/s, 284° | - | - |
| 1778015245 | 5° C | 87% | 1009.4 hPa | - | 6.71 m/s, 285° | - | - |
| 1778014046 | 5° C | 79% | 1009.3 hPa | - | 6.26 m/s, 284° | - | - |
| 1778012847 | 5° C | 77% | 1009.2 hPa | - | 5.81 m/s, 280° | - | - |
| 1778011645 | 5° C | 75% | 1009 hPa | - | 6.26 m/s, 280° | - | - |
| 1778010445 | 5.56° C | 73% | 1008.9 hPa | - | 6.71 m/s, 274° | - | - |
| 1778009245 | 5.56° C | 75% | 1008.8 hPa | - | 5.81 m/s, 279° | - | - |
| 1778008045 | 5.56° C | 74% | 1008.7 hPa | - | 7.15 m/s, 278° | - | - |
| 1778006845 | 5.56° C | 71% | 1008.6 hPa | - | 7.6 m/s, 286° | - | - |
| 1778005645 | 5.56° C | 69% | 1008.4 hPa | - | 7.6 m/s, 286° | - | - |
| 1778004445 | 6.11° C | 67% | 1008.2 hPa | - | 8.49 m/s, 283° | - | - |
| 1778003245 | 6.11° C | 70% | 1008.1 hPa | - | 6.71 m/s, 281° | - | - |
| 1778002044 | 6.11° C | 80% | 1008 hPa | - | 6.26 m/s, 263° | - | - |
| 1778000844 | 6.11° C | 81% | 1007.9 hPa | - | 7.15 m/s, 253° | - | - |
| 1777999644 | 6.11° C | 83% | 1007.9 hPa | - | 8.49 m/s, 250° | - | - |
| 1777998445 | 6.11° C | 85% | 1007.9 hPa | - | 8.49 m/s, 245° | - | - |
| 1777997244 | 6.67° C | 82% | 1007.8 hPa | - | 8.49 m/s, 247° | - | - |
| 1777996045 | 6.67° C | 82% | 1007.7 hPa | - | 8.49 m/s, 247° | - | - |
| 1777994844 | 7.22° C | 80% | 1007.6 hPa | - | 8.49 m/s, 251° | - | - |
| 1777993644 | 7.22° C | 80% | 1007.7 hPa | - | 8.49 m/s, 250° | - | - |
| 1777992445 | 6.67° C | 84% | 1007.6 hPa | - | 8.49 m/s, 248° | - | - |
| 1777991255 | 6.67° C | 80% | 1007.5 hPa | - | 8.05 m/s, 252° | - | - |
| 1777990044 | 6.67° C | 81% | 1007.5 hPa | - | 8.05 m/s, 254° | - | - |
* Rain since midnight (hover to see other rain measurements)
** Current wind speed in m/s (hover to see current wind gust speed)